Time;durP1;ratioP1;P1;durP2;ratioP2;P2;SDS_P1;SDS_P2;PMS_P1;PMS_P2;Temp;Humidity;BMP_temperature;BMP_pressure;BME280_temperature;BME280_humidity;BME280_pressure;Samples;Min_cycle;Max_cycle;Signal;HPM_P1;HPM_P2
2024/03/30 00:02:12;;;;;;;2.22;1.60;;;;;;;20.75;47.19;99477.19;2338286;76;50742;-84
2024/03/30 00:05:14;;;;;;;1.75;1.37;;;;;;;20.75;47.18;99488.46;2343623;75;50697;-84
2024/03/30 00:08:16;;;;;;;2.00;1.62;;;;;;;20.75;47.27;99490.63;2300513;76;49593;-83
2024/03/30 00:11:18;;;;;;;2.47;1.60;;;;;;;20.77;47.22;99492.56;2344016;76;50725;-83
2024/03/30 00:14:21;;;;;;;1.82;1.40;;;;;;;20.76;47.28;99490.13;2343908;75;50764;-83
2024/03/30 00:17:23;;;;;;;1.62;1.35;;;;;;;20.76;47.28;99486.91;2311893;76;51069;-83
2024/03/30 00:20:27;;;;;;;1.52;1.42;;;;;;;20.77;47.29;99493.09;2343967;76;50623;-83
2024/03/30 00:23:31;;;;;;;1.65;1.40;;;;;;;20.76;47.27;99493.62;2311668;76;50201;-83
2024/03/30 00:26:33;;;;;;;1.92;1.55;;;;;;;20.77;47.24;99490.41;2335015;76;50831;-83
2024/03/30 00:29:35;;;;;;;1.70;1.60;;;;;;;20.78;47.20;99496.07;2292793;76;50874;-83
2024/03/30 00:32:38;;;;;;;2.02;1.40;;;;;;;20.76;47.27;99484.75;2292602;76;50140;-83
2024/03/30 00:35:40;;;;;;;2.37;1.70;;;;;;;20.76;47.27;99486.09;2316534;76;50732;-83
2024/03/30 00:38:45;;;;;;;1.70;1.50;;;;;;;20.76;47.24;99479.38;2316851;76;50051;-83
2024/03/30 00:41:46;;;;;;;1.32;1.22;;;;;;;20.75;47.26;99479.87;2317160;76;22455;-84
2024/03/30 00:44:48;;;;;;;1.87;1.57;;;;;;;20.77;47.30;99487.19;2316932;76;50825;-84
2024/03/30 00:47:50;;;;;;;2.10;1.82;;;;;;;20.76;47.35;99482.87;2292630;76;50088;-84
2024/03/30 00:50:53;;;;;;;2.22;1.75;;;;;;;20.75;47.33;99477.71;2317456;76;50721;-84
2024/03/30 00:53:55;;;;;;;1.95;1.75;;;;;;;20.75;47.34;99479.05;2293355;76;51079;-84
2024/03/30 00:56:57;;;;;;;1.70;1.47;;;;;;;20.76;47.27;99481.53;2293007;76;49345;-84
2024/03/30 01:00:00;;;;;;;2.27;1.72;;;;;;;20.75;47.30;99469.65;2317452;76;50748;-84
2024/03/30 01:03:02;;;;;;;2.40;1.60;;;;;;;20.76;47.30;99472.66;2293193;76;50077;-83
2024/03/30 01:06:04;;;;;;;1.50;1.37;;;;;;;20.76;47.32;99461.90;2292510;76;50703;-82
2024/03/30 01:09:11;;;;;;;1.80;1.70;;;;;;;20.76;47.30;99452.48;2291951;76;50650;-82
2024/03/30 01:12:11;;;;;;;2.22;1.70;;;;;;;20.75;47.33;99458.89;2316351;76;22305;-82
2024/03/30 01:15:14;;;;;;;2.42;1.80;;;;;;;20.76;47.27;99459.21;2318883;75;51507;-83
2024/03/30 01:18:16;;;;;;;2.52;1.72;;;;;;;20.75;47.30;99462.39;2293339;76;50608;-82
2024/03/30 01:21:19;;;;;;;2.15;1.77;;;;;;;20.75;47.27;99453.52;2286611;76;50075;-82
2024/03/30 01:24:21;;;;;;;2.37;1.92;;;;;;;20.75;47.19;99450.30;2293913;76;50741;-83
2024/03/30 01:27:24;;;;;;;2.37;1.70;;;;;;;20.74;47.19;99459.42;2292572;76;50731;-81
2024/03/30 01:30:26;;;;;;;1.98;1.75;;;;;;;20.72;47.21;99451.29;2318009;76;51674;-82
2024/03/30 01:33:29;;;;;;;1.77;1.60;;;;;;;20.75;47.19;99449.48;2294015;76;50767;-83
2024/03/30 01:36:31;;;;;;;2.55;1.70;;;;;;;20.74;47.18;99438.45;2286914;76;50202;-83
2024/03/30 01:39:34;;;;;;;2.17;1.70;;;;;;;20.74;47.15;99443.30;2318302;76;50734;-83
2024/03/30 01:42:38;;;;;;;2.25;1.80;;;;;;;20.75;47.17;99450.30;2320179;76;51327;-83
2024/03/30 01:45:41;;;;;;;3.98;1.85;;;;;;;20.76;47.11;99441.73;2294551;76;25576;-83
2024/03/30 01:48:44;;;;;;;1.98;1.77;;;;;;;20.75;47.19;99436.05;2318958;76;51591;-83
2024/03/30 01:51:46;;;;;;;2.10;1.90;;;;;;;20.74;47.14;99429.85;2320661;76;50744;-83
2024/03/30 01:54:49;;;;;;;2.22;1.90;;;;;;;20.75;47.16;99436.05;2317643;76;50613;-82
2024/03/30 01:57:52;;;;;;;1.80;1.50;;;;;;;20.76;47.18;99433.67;2316763;76;50809;-83
2024/03/30 02:00:55;;;;;;;1.72;1.62;;;;;;;20.76;47.16;99439.86;2293021;76;49640;-82
2024/03/30 02:03:58;;;;;;;2.22;1.80;;;;;;;20.76;47.22;99448.45;2317147;76;51475;-83
2024/03/30 02:07:00;;;;;;;2.27;1.72;;;;;;;20.76;47.22;99453.30;2316956;76;50434;-83
2024/03/30 02:10:04;;;;;;;1.70;1.60;;;;;;;20.77;47.20;99451.43;2292487;76;49457;-84
2024/03/30 02:13:09;;;;;;;2.62;1.75;;;;;;;20.77;47.21;99455.46;2317019;76;50367;-82
2024/03/30 02:16:12;;;;;;;1.95;1.75;;;;;;;20.76;47.29;99457.34;2292360;76;49662;-83
2024/03/30 02:19:14;;;;;;;2.00;1.70;;;;;;;20.76;47.30;99448.45;2316603;76;51296;-83
2024/03/30 02:22:19;;;;;;;2.22;1.87;;;;;;;20.76;47.30;99449.80;2316859;76;50814;-82
2024/03/30 02:25:22;;;;;;;2.42;1.85;;;;;;;20.76;47.27;99453.83;2292344;76;49443;-83
2024/03/30 02:28:24;;;;;;;1.90;1.65;;;;;;;20.75;47.21;99450.83;2310943;76;50662;-82
2024/03/30 02:31:26;;;;;;;2.30;1.80;;;;;;;20.75;47.16;99440.89;2307113;77;50341;-83
2024/03/30 02:34:28;;;;;;;2.15;1.67;;;;;;;20.75;47.22;99438.73;2273668;76;50116;-83
2024/03/30 02:37:30;;;;;;;2.45;1.80;;;;;;;20.75;47.17;99440.89;2306997;77;50674;-83
2024/03/30 02:40:33;;;;;;;1.92;1.72;;;;;;;20.74;47.16;99425.00;2307356;76;50745;-84
2024/03/30 02:43:35;;;;;;;1.70;1.55;;;;;;;20.75;47.16;99429.33;2307455;76;51266;-83
2024/03/30 02:46:37;;;;;;;2.40;2.00;;;;;;;20.76;47.18;99424.27;2307018;76;52582;-83
2024/03/30 02:49:40;;;;;;;2.25;2.05;;;;;;;20.75;47.21;99433.36;2273682;77;52541;-84
2024/03/30 02:52:42;;;;;;;2.10;1.72;;;;;;;20.75;47.23;99430.66;2307030;76;51483;-83
2024/03/30 02:55:44;;;;;;;1.80;1.70;;;;;;;20.75;47.24;99437.39;2306957;76;50708;-83
2024/03/30 02:58:46;;;;;;;2.08;1.77;;;;;;;20.75;47.19;99429.33;2274043;77;49945;-83
2024/03/30 03:01:48;;;;;;;1.77;1.65;;;;;;;20.75;47.15;99423.95;2307648;77;50605;-83
2024/03/30 03:04:51;;;;;;;1.52;1.42;;;;;;;20.74;47.15;99420.45;2307126;76;50725;-83
2024/03/30 03:07:53;;;;;;;1.87;1.72;;;;;;;20.74;47.11;99420.45;2306685;77;50690;-83
2024/03/30 03:10:55;;;;;;;2.10;1.72;;;;;;;20.75;47.02;99419.39;2307464;77;51518;-83
2024/03/30 03:13:57;;;;;;;2.25;1.92;;;;;;;20.74;47.06;99433.07;2307526;76;50866;-84
2024/03/30 03:16:59;;;;;;;1.80;1.70;;;;;;;20.74;47.03;99443.83;2307356;77;50857;-83
2024/03/30 03:20:05;;;;;;;1.90;1.70;;;;;;;20.73;47.04;99434.10;2274406;76;51761;-83
2024/03/30 03:23:07;;;;;;;2.30;1.87;;;;;;;20.74;47.04;99429.04;2250278;77;51522;-83
2024/03/30 03:26:09;;;;;;;2.08;1.87;;;;;;;20.74;47.02;99443.30;2306684;76;50710;-83
2024/03/30 03:29:11;;;;;;;2.98;2.00;;;;;;;20.73;47.04;99440.32;2313014;75;50272;-83
2024/03/30 03:32:14;;;;;;;2.52;1.87;;;;;;;20.74;47.05;99443.83;2316767;76;50691;-84
2024/03/30 03:35:16;;;;;;;1.98;1.77;;;;;;;20.73;47.03;99443.51;2316484;76;51482;-82
2024/03/30 03:38:18;;;;;;;1.67;1.57;;;;;;;20.72;47.07;99423.88;2291898;76;51490;-83
2024/03/30 03:41:20;;;;;;;2.67;2.00;;;;;;;20.73;47.02;99416.13;2317226;76;50943;-82
2024/03/30 03:44:22;;;;;;;2.62;2.10;;;;;;;20.75;47.00;99417.23;2317334;76;51681;-83
2024/03/30 03:47:25;;;;;;;1.70;1.60;;;;;;;20.74;47.11;99419.63;2292400;76;50033;-82
2024/03/30 03:50:27;;;;;;;1.75;1.65;;;;;;;20.74;47.18;99415.59;2316820;76;50737;-83
2024/03/30 03:53:29;;;;;;;1.52;1.42;;;;;;;20.76;47.13;99421.58;2291820;76;51596;-83
2024/03/30 03:56:31;;;;;;;2.25;1.90;;;;;;;20.74;47.21;99412.38;2316465;76;50220;-82
2024/03/30 03:59:33;;;;;;;2.50;1.77;;;;;;;20.76;47.12;99412.16;2317104;76;50466;-83
2024/03/30 04:02:37;;;;;;;1.70;1.60;;;;;;;20.75;47.15;99413.19;2292446;76;50066;-83
2024/03/30 04:05:39;;;;;;;2.40;1.70;;;;;;;20.75;47.21;99413.19;2316767;76;51339;-83
2024/03/30 04:08:41;;;;;;;1.98;1.70;;;;;;;20.75;47.10;99415.88;2317255;76;50731;-83
2024/03/30 04:11:43;;;;;;;1.98;1.75;;;;;;;20.76;47.07;99421.58;2293321;76;49802;-82
2024/03/30 04:14:46;;;;;;;2.02;1.80;;;;;;;20.75;47.08;99425.30;2318785;75;50259;-83
2024/03/30 04:17:48;;;;;;;1.75;1.60;;;;;;;20.75;47.03;99418.57;2317097;76;51068;-83
2024/03/30 04:21:02;;;;;;;2.00;1.80;;;;;;;20.74;47.01;99411.56;2317252;76;52205;-83
2024/03/30 04:24:05;;;;;;;2.15;1.70;;;;;;;20.75;46.99;99418.57;2317027;76;50776;-83
2024/03/30 04:27:07;;;;;;;1.77;1.60;;;;;;;20.74;46.98;99423.13;2286275;76;51078;-82
2024/03/30 04:30:11;;;;;;;2.15;1.70;;;;;;;20.74;46.98;99427.70;2292915;76;50376;-83
2024/03/30 04:33:13;;;;;;;2.00;1.80;;;;;;;20.73;46.95;99426.88;2277625;77;50500;-82
2024/03/30 04:36:15;;;;;;;1.67;1.50;;;;;;;20.74;46.91;99428.51;2252415;78;50141;-83
2024/03/30 04:39:17;;;;;;;2.27;1.70;;;;;;;20.74;46.88;99427.70;2285723;78;51696;-83
2024/03/30 04:42:20;;;;;;;1.80;1.60;;;;;;;20.74;46.90;99441.14;2278000;77;50802;-82
2024/03/30 04:45:22;;;;;;;2.52;1.90;;;;;;;20.74;46.90;99423.66;2285811;77;50799;-82
2024/03/30 04:48:25;;;;;;;1.92;1.72;;;;;;;20.74;46.86;99425.00;2278351;77;50728;-83
2024/03/30 04:51:27;;;;;;;2.52;1.67;;;;;;;20.73;46.88;99440.81;2252753;78;51697;-83
2024/03/30 04:54:30;;;;;;;1.87;1.70;;;;;;;20.73;46.88;99440.32;2285969;77;51448;-83
2024/03/30 04:57:33;;;;;;;2.08;1.50;;;;;;;20.73;46.88;99431.41;2285693;78;50118;-83
2024/03/30 05:00:35;;;;;;;1.98;1.67;;;;;;;20.73;46.86;99442.16;2253629;78;50232;-83
2024/03/30 05:03:38;;;;;;;2.27;1.90;;;;;;;20.73;46.87;99444.85;2286620;77;50702;-83
2024/03/30 05:06:40;;;;;;;2.40;1.80;;;;;;;20.73;46.85;99427.38;2287027;77;50983;-83
2024/03/30 05:09:42;;;;;;;1.75;1.65;;;;;;;20.72;46.81;99416.34;2254086;78;50718;-83
2024/03/30 05:12:44;;;;;;;2.05;1.72;;;;;;;20.73;46.83;99419.31;2287468;76;50735;-84
2024/03/30 05:15:47;;;;;;;2.00;1.80;;;;;;;20.73;46.82;99422.00;2254093;78;51658;-82
2024/03/30 05:18:49;;;;;;;2.47;1.77;;;;;;;20.73;46.84;99423.34;2277761;77;50857;-81
2024/03/30 05:21:52;;;;;;;2.02;1.82;;;;;;;20.71;46.82;99403.96;2285303;78;51664;-84
2024/03/30 05:24:54;;;;;;;2.92;1.67;;;;;;;20.72;46.87;99408.28;2228112;78;51015;-81
2024/03/30 05:27:57;;;;;;;1.90;1.60;;;;;;;20.74;46.90;99395.44;2285138;78;50127;-83
2024/03/30 05:31:01;;;;;;;1.87;1.50;;;;;;;20.74;46.98;99405.66;2312878;76;50430;-82
2024/03/30 05:34:03;;;;;;;2.05;1.80;;;;;;;20.74;46.99;99403.50;2293643;76;50129;-82
2024/03/30 05:37:06;;;;;;;2.10;1.75;;;;;;;20.76;46.94;99420.23;2316784;76;50410;-84
2024/03/30 05:40:08;;;;;;;1.98;1.77;;;;;;;20.76;47.00;99420.23;2293334;76;50117;-84
2024/03/30 05:43:11;;;;;;;1.62;1.50;;;;;;;20.75;46.93;99415.88;2293442;76;50663;-80
2024/03/30 05:46:16;;;;;;;1.82;1.60;;;;;;;20.75;46.95;99419.39;2316827;76;51346;-83
2024/03/30 05:49:18;;;;;;;;;;;;;;;20.75;46.90;99414.01;2313914;76;51876;-83
2024/03/30 05:52:20;;;;;;;1.57;1.47;;;;;;;20.75;46.87;99417.23;2317309;76;50555;-83
2024/03/30 05:55:22;;;;;;;1.87;1.75;;;;;;;20.74;46.93;99407.53;2316447;76;50748;-82
2024/03/30 05:58:24;;;;;;;1.77;1.57;;;;;;;20.75;46.82;99401.09;2285910;76;49375;-83
2024/03/30 06:01:26;;;;;;;1.80;1.47;;;;;;;20.73;46.90;99405.38;2316555;76;50399;-82
2024/03/30 06:04:29;;;;;;;2.12;1.65;;;;;;;20.74;46.90;99416.94;2316476;76;50989;-83
2024/03/30 06:07:31;;;;;;;1.80;1.60;;;;;;;20.74;46.86;99416.41;2316408;76;50782;-83
2024/03/30 06:10:33;;;;;;;2.72;1.50;;;;;;;20.76;46.84;99414.86;2316658;76;51469;-83
2024/03/30 06:13:35;;;;;;;1.85;1.67;;;;;;;20.73;46.91;99413.44;2292542;76;51121;-83
2024/03/30 06:16:39;;;;;;;1.80;1.70;;;;;;;20.74;46.88;99409.69;2316362;76;51751;-83
2024/03/30 06:19:41;;;;;;;2.00;1.90;;;;;;;20.74;46.87;99408.88;2316499;76;50801;-83
2024/03/30 06:22:45;;;;;;;1.80;1.70;;;;;;;20.74;46.90;99408.88;2285119;76;50148;-83
2024/03/30 06:25:47;;;;;;;1.57;1.47;;;;;;;20.74;46.92;99404.84;2316128;76;52032;-83
2024/03/30 06:28:49;;;;;;;2.42;1.80;;;;;;;20.73;46.97;99408.06;2316793;76;50702;-82
2024/03/30 06:31:52;;;;;;;2.10;1.70;;;;;;;20.73;46.99;99406.72;2316888;76;51549;-84
2024/03/30 06:34:54;;;;;;;3.22;1.70;;;;;;;20.75;46.94;99405.13;2316949;76;50787;-83
2024/03/30 06:37:56;;;;;;;1.70;1.60;;;;;;;20.74;46.87;99411.03;2292202;76;49568;-83
2024/03/30 06:44:18;;;;;;;1.90;1.57;;;;;;;20.74;46.98;99412.38;2316970;76;23627;-82
2024/03/30 06:47:20;;;;;;;1.90;1.57;;;;;;;20.75;46.93;99418.04;2316252;76;50701;-82
2024/03/30 06:50:23;;;;;;;1.92;1.67;;;;;;;20.75;46.99;99421.26;2292484;76;50719;-83
2024/03/30 06:53:25;;;;;;;1.90;1.80;;;;;;;20.74;46.91;99425.00;2291394;76;50341;-83
2024/03/30 06:56:27;;;;;;;2.98;1.65;;;;;;;20.75;46.88;99430.66;2292123;76;49530;-82
2024/03/30 06:59:29;;;;;;;2.20;1.70;;;;;;;20.75;46.88;99436.05;2316457;76;50434;-82
2024/03/30 07:02:32;;;;;;;1.92;1.65;;;;;;;20.74;46.86;99427.70;2290655;76;50714;-82
2024/03/30 07:05:35;;;;;;;1.85;1.65;;;;;;;20.74;46.88;99435.76;2311181;76;50132;-82
2024/03/30 07:08:37;;;;;;;2.25;1.80;;;;;;;20.74;46.87;99423.66;2316588;76;50963;-83
2024/03/30 07:11:39;;;;;;;1.67;1.50;;;;;;;20.75;46.90;99409.16;2316360;76;51337;-82
2024/03/30 07:14:41;;;;;;;2.62;1.70;;;;;;;20.75;46.90;99396.53;2316139;76;50749;-82
2024/03/30 07:17:44;;;;;;;3.00;1.70;;;;;;;20.75;46.96;99405.13;2291478;76;50513;-83
2024/03/30 07:20:46;;;;;;;2.22;1.60;;;;;;;20.77;46.94;99408.41;2291797;76;50108;-83
2024/03/30 07:23:48;;;;;;;2.12;1.77;;;;;;;20.76;47.00;99406.26;2316219;76;51417;-83
2024/03/30 07:26:50;;;;;;;1.57;1.47;;;;;;;20.76;47.02;99413.51;2316422;76;50701;-83
2024/03/30 07:29:53;;;;;;;2.05;1.80;;;;;;;20.77;46.97;99411.11;2296130;76;50984;-83
2024/03/30 07:32:55;;;;;;;2.12;1.62;;;;;;;20.77;46.98;99403.86;2343618;76;50775;-84
2024/03/30 07:35:57;;;;;;;2.02;1.60;;;;;;;20.77;47.04;99406.55;2337644;75;50767;-83
2024/03/30 07:38:59;;;;;;;2.05;1.80;;;;;;;20.79;47.04;99396.92;2311840;76;50678;-83
2024/03/30 07:42:01;;;;;;;2.75;1.80;;;;;;;20.79;47.11;99392.89;2343337;76;50647;-82
2024/03/30 07:45:04;;;;;;;2.37;1.85;;;;;;;20.79;47.14;99396.39;2299691;76;49579;-83
2024/03/30 07:48:06;;;;;;;2.52;1.70;;;;;;;20.80;47.09;99397.20;2311354;76;51579;-83
2024/03/30 07:51:08;;;;;;;1.70;1.60;;;;;;;20.80;47.12;99393.17;2311617;76;50539;-83
2024/03/30 07:54:11;;;;;;;1.87;1.75;;;;;;;20.81;47.20;99396.17;2311655;75;50189;-84
2024/03/30 07:57:13;;;;;;;2.02;1.50;;;;;;;20.82;47.23;99404.52;2343636;76;50799;-83
2024/03/30 08:00:15;;;;;;;2.00;1.80;;;;;;;20.84;47.36;99405.13;2344160;76;50638;-83
2024/03/30 08:03:17;;;;;;;1.92;1.67;;;;;;;20.87;47.31;99414.06;2312417;76;51151;-83
2024/03/30 08:06:20;;;;;;;1.92;1.50;;;;;;;20.90;47.38;99411.45;2344282;75;51270;-82
2024/03/30 08:09:22;;;;;;;2.12;1.90;;;;;;;20.89;47.36;99417.36;2312622;76;49523;-83
2024/03/30 08:12:25;;;;;;;1.85;1.70;;;;;;;20.88;47.40;99408.97;2338959;75;51068;-83
2024/03/30 08:15:27;;;;;;;2.50;1.70;;;;;;;20.86;47.43;99397.66;2344155;75;50187;-83
2024/03/30 08:18:30;;;;;;;2.50;1.80;;;;;;;20.88;47.43;99395.03;2312800;76;50093;-82
2024/03/30 08:21:32;;;;;;;3.15;1.77;;;;;;;20.87;47.45;99400.63;2344799;76;50575;-82
2024/03/30 08:24:34;;;;;;;2.15;1.60;;;;;;;20.87;47.54;99412.73;2345251;75;50982;-83
2024/03/30 08:27:36;;;;;;;1.92;1.70;;;;;;;20.87;47.52;99414.06;2344991;76;50678;-82
2024/03/30 08:30:38;;;;;;;3.33;1.85;;;;;;;20.87;47.55;99408.69;2338422;76;50731;-83
2024/03/30 08:33:41;;;;;;;1.70;1.60;;;;;;;20.87;47.57;99409.50;2293667;76;50883;-82
2024/03/30 08:36:43;;;;;;;2.22;1.90;;;;;;;20.86;47.60;99414.59;2317549;76;50779;-83
2024/03/30 08:39:45;;;;;;;2.08;1.60;;;;;;;20.87;47.64;99419.45;2317672;76;52083;-82
2024/03/30 08:42:48;;;;;;;2.60;1.85;;;;;;;20.88;47.63;99406.28;2293978;76;50089;-82
2024/03/30 08:45:50;;;;;;;2.62;1.50;;;;;;;20.90;47.58;99393.97;2317999;76;50269;-83
2024/03/30 08:48:52;;;;;;;3.45;1.90;;;;;;;20.90;47.64;99393.97;2318695;76;50494;-82
2024/03/30 08:51:55;;;;;;;3.40;2.00;;;;;;;20.90;47.53;99385.38;2293199;76;50702;-82
2024/03/30 08:54:57;;;;;;;3.20;1.98;;;;;;;20.92;47.35;99390.00;2318155;76;51629;-82
2024/03/30 08:57:59;;;;;;;2.95;1.82;;;;;;;20.95;47.30;99396.27;2292337;76;51125;-82
2024/03/30 09:01:02;;;;;;;2.35;1.90;;;;;;;20.95;47.32;99393.57;2293196;76;51037;-83
2024/03/30 09:04:04;;;;;;;2.37;2.12;;;;;;;20.98;47.30;99392.30;2317295;76;50365;-83
2024/03/30 09:07:06;;;;;;;2.30;1.80;;;;;;;20.99;47.18;99389.89;2286075;76;50989;-83
2024/03/30 09:10:08;;;;;;;4.47;2.02;;;;;;;20.99;47.33;99385.36;2317438;76;51511;-83
2024/03/30 09:13:10;;;;;;;3.25;1.80;;;;;;;21.00;47.33;99389.67;2318849;76;50407;-82
2024/03/30 09:16:13;;;;;;;3.55;2.02;;;;;;;21.02;47.02;99388.92;2316376;76;50360;-83
2024/03/30 09:19:15;;;;;;;3.72;1.90;;;;;;;21.01;47.11;99398.02;2316626;76;50762;-83
2024/03/30 09:22:17;;;;;;;3.12;2.20;;;;;;;21.01;47.21;99396.67;2292217;76;49314;-83
2024/03/30 09:25:19;;;;;;;2.92;2.00;;;;;;;21.02;47.04;99395.65;2316319;76;50570;-83
2024/03/30 09:28:22;;;;;;;5.70;2.25;;;;;;;21.02;47.03;99394.83;2316993;76;50400;-82
2024/03/30 09:31:24;;;;;;;4.03;2.20;;;;;;;21.01;46.97;99389.14;2292353;76;51705;-81
2024/03/30 09:34:26;;;;;;;6.20;2.42;;;;;;;21.03;46.97;99388.39;2316834;76;50622;-84
2024/03/30 09:37:28;;;;;;;4.45;2.08;;;;;;;21.02;47.09;99378.17;2316299;76;51730;-83
2024/03/30 09:40:32;;;;;;;4.58;2.37;;;;;;;21.03;46.97;99372.26;2316641;76;51947;-83
2024/03/30 09:43:34;;;;;;;6.05;2.00;;;;;;;21.02;46.99;99370.63;2316511;76;51581;-84
2024/03/30 09:46:37;;;;;;;5.95;2.33;;;;;;;21.01;46.97;99372.47;2292066;76;49454;-84
2024/03/30 09:49:39;;;;;;;6.72;2.33;;;;;;;21.02;46.96;99374.13;2291768;76;51707;-84
2024/03/30 09:52:42;;;;;;;4.17;2.10;;;;;;;21.04;47.05;99377.42;2316329;76;52034;-84
2024/03/30 09:55:45;;;;;;;5.33;2.05;;;;;;;21.03;47.05;99374.95;2291989;76;50194;-83
2024/03/30 09:58:47;;;;;;;7.42;2.77;;;;;;;21.03;47.18;99378.98;2316437;76;51586;-83
2024/03/30 10:01:49;;;;;;;7.65;2.50;;;;;;;21.05;47.13;99377.70;2316651;76;51817;-84
2024/03/30 10:04:53;;;;;;;10.38;2.85;;;;;;;21.04;47.25;99366.66;2292407;76;50796;-83
2024/03/30 10:08:02;;;;;;;6.80;2.25;;;;;;;21.05;47.18;99361.56;2316736;76;50241;-84
2024/03/30 10:11:08;;;;;;;9.55;2.55;;;;;;;21.05;47.22;99360.22;2292679;76;50156;-83
2024/03/30 10:14:29;;;;;;;;;;;;;;;21.05;47.23;99357.53;2319207;76;53014;-84
2024/03/30 10:17:31;;;;;;;6.15;2.60;;;;;;;21.07;47.26;99356.78;2317089;76;50732;-83
2024/03/30 10:20:34;;;;;;;7.65;2.33;;;;;;;21.08;47.43;99351.69;2285886;76;49751;-82
2024/03/30 10:23:36;;;;;;;6.42;2.15;;;;;;;21.09;47.37;99345.77;2316524;76;50828;-82
2024/03/30 10:26:40;;;;;;;5.55;2.55;;;;;;;21.10;47.54;99345.55;2316287;76;50787;-83
2024/03/30 10:29:44;;;;;;;8.28;2.60;;;;;;;21.12;47.54;99337.77;2292051;76;50118;-83
2024/03/30 10:32:47;;;;;;;10.90;2.80;;;;;;;21.12;47.66;99337.77;2316490;76;51609;-83
2024/03/30 10:35:53;;;;;;;6.08;2.67;;;;;;;21.12;47.60;99338.61;2318056;75;50838;-82
2024/03/30 10:38:57;;;;;;;12.60;2.75;;;;;;;21.13;47.62;99336.20;2292729;76;50756;-83
2024/03/30 10:41:59;;;;;;;11.22;2.65;;;;;;;21.14;47.58;99329.76;2316558;76;50722;-83
2024/03/30 10:45:04;;;;;;;8.18;2.67;;;;;;;21.17;47.65;99335.20;2292247;76;50061;-83
2024/03/30 10:48:07;;;;;;;9.75;3.08;;;;;;;21.17;47.94;99326.63;2316626;76;50766;-83
2024/03/30 10:51:09;;;;;;;8.48;2.90;;;;;;;21.19;47.79;99335.27;2318291;76;52323;-84
2024/03/30 10:54:19;;;;;;;8.68;2.22;;;;;;;21.18;47.82;99334.17;2292506;76;50894;-84
2024/03/30 10:57:16;;;;;;;6.42;2.60;;;;;;;21.21;47.89;99337.20;2315666;76;22104;-84
2024/03/30 11:00:19;;;;;;;14.73;2.72;;;;;;;21.23;47.80;99335.64;2292116;76;50809;-82
2024/03/30 11:03:21;;;;;;;9.45;2.87;;;;;;;21.23;47.89;99333.76;2318140;76;51613;-82
2024/03/30 11:06:23;;;;;;;10.78;2.87;;;;;;;21.24;47.76;99335.39;2316253;76;50780;-84
2024/03/30 11:09:27;;;;;;;14.47;3.00;;;;;;;21.25;47.67;99338.92;2292502;76;51676;-83
2024/03/30 11:12:29;;;;;;;7.25;2.67;;;;;;;21.26;47.65;99341.89;2316853;76;50531;-82
2024/03/30 11:15:34;;;;;;;10.95;2.98;;;;;;;21.25;47.78;99337.05;2316518;76;50692;-83
2024/03/30 11:18:46;;;;;;;8.60;3.00;;;;;;;21.26;47.82;99331.13;2292608;76;51621;-83
2024/03/30 11:21:55;;;;;;;9.83;2.67;;;;;;;21.26;47.79;99329.78;2307717;76;50561;-83
2024/03/30 11:25:00;;;;;;;13.22;2.85;;;;;;;21.27;47.85;99327.38;2315268;76;50712;-83
2024/03/30 11:28:11;;;;;;;11.83;3.20;;;;;;;21.25;47.91;99325.47;2292865;76;50473;-83
2024/03/30 11:31:24;;;;;;;14.28;3.40;;;;;;;21.26;47.92;99326.56;2315461;76;49553;-83
2024/03/30 11:34:47;;;;;;;15.08;3.35;;;;;;;21.26;47.89;99323.88;2311212;75;50130;-83
2024/03/30 11:37:51;;;;;;;13.32;3.25;;;;;;;21.27;47.72;99326.03;2343575;76;50677;-84
2024/03/30 11:40:57;;;;;;;14.87;3.25;;;;;;;21.28;47.78;99322.30;2343655;76;50712;-84
2024/03/30 11:44:09;;;;;;;;;;;;;;;21.27;47.82;99315.27;2326888;75;49739;-83
2024/03/30 11:47:12;;;;;;;13.22;3.65;;;;;;;21.28;47.83;99315.58;2343114;75;51530;-82
2024/03/30 11:50:14;;;;;;;13.38;3.60;;;;;;;21.30;47.76;99312.14;2343933;76;51050;-83
2024/03/30 11:53:20;;;;;;;16.12;3.62;;;;;;;21.31;47.66;99304.34;2344042;76;50670;-84
2024/03/30 11:56:22;;;;;;;16.07;3.33;;;;;;;21.30;47.67;99311.61;2343316;75;50844;-83
2024/03/30 11:59:25;;;;;;;15.35;3.85;;;;;;;21.34;47.66;99305.75;2343397;76;51377;-82
2024/03/30 12:02:30;;;;;;;20.23;3.92;;;;;;;21.33;47.67;99302.78;2311142;76;51573;-83
2024/03/30 12:05:31;;;;;;;18.32;3.30;;;;;;;21.33;47.72;99300.09;2343244;75;22629;-82
2024/03/30 12:08:33;;;;;;;15.25;3.87;;;;;;;21.34;47.65;99297.14;2311456;76;49553;-82
2024/03/30 12:11:35;;;;;;;17.35;3.47;;;;;;;21.36;47.69;99289.66;2311520;76;50392;-82
2024/03/30 12:14:45;;;;;;;14.53;3.92;;;;;;;21.35;47.64;99280.47;2311664;76;50018;-82
2024/03/30 12:17:47;;;;;;;15.63;3.67;;;;;;;21.35;47.57;99279.97;2325642;76;49592;-83
2024/03/30 12:20:50;;;;;;;15.53;3.52;;;;;;;21.36;47.65;99270.83;2343203;76;50809;-82
2024/03/30 12:23:52;;;;;;;17.35;4.00;;;;;;;21.37;47.62;99273.80;2311767;75;51636;-82
2024/03/30 12:26:55;;;;;;;17.32;4.00;;;;;;;21.38;47.57;99271.45;2343499;76;51543;-83
2024/03/30 12:29:57;;;;;;;17.70;4.37;;;;;;;21.38;47.56;99264.73;2343887;76;51406;-84
2024/03/30 12:33:00;;;;;;;13.08;3.50;;;;;;;21.38;47.57;99259.34;2311779;76;49989;-83
2024/03/30 12:36:02;;;;;;;20.23;4.15;;;;;;;21.37;47.58;99260.34;2344230;75;50555;-83
2024/03/30 12:39:04;;;;;;;14.90;3.65;;;;;;;21.39;47.49;99265.00;2312507;76;51440;-83
2024/03/30 12:42:07;;;;;;;17.27;3.95;;;;;;;21.39;47.54;99258.28;2312507;76;50107;-83
2024/03/30 12:45:09;;;;;;;16.82;3.85;;;;;;;21.40;47.55;99252.36;2338490;75;50796;-83
2024/03/30 12:48:11;;;;;;;21.57;4.05;;;;;;;21.41;47.40;99246.76;2343901;76;50948;-84
2024/03/30 12:51:14;;;;;;;21.97;3.98;;;;;;;21.42;47.29;99238.16;2343948;76;50330;-83
2024/03/30 12:54:16;;;;;;;24.87;4.25;;;;;;;21.41;47.27;99227.92;2343871;75;50972;-83
2024/03/30 12:57:18;;;;;;;23.32;3.95;;;;;;;21.41;47.32;99221.73;2311973;76;50095;-83
2024/03/30 13:00:20;;;;;;;20.52;4.10;;;;;;;21.40;47.25;99222.27;2343956;76;51577;-84
2024/03/30 13:03:22;;;;;;;21.27;4.53;;;;;;;21.40;47.26;99216.87;2344147;76;50689;-83
2024/03/30 13:06:25;;;;;;;18.98;4.25;;;;;;;21.39;47.40;99207.69;2312260;76;49238;-83
2024/03/30 13:09:27;;;;;;;22.50;4.10;;;;;;;21.38;47.29;99197.45;2344317;76;50291;-84
2024/03/30 13:12:30;;;;;;;21.93;4.12;;;;;;;21.38;47.25;99196.11;2344633;76;50670;-83
2024/03/30 13:15:32;;;;;;;15.45;3.90;;;;;;;21.39;47.16;99198.27;2344152;75;51982;-84
2024/03/30 13:18:36;;;;;;;16.87;4.80;;;;;;;21.40;47.09;99194.01;2344324;76;50758;-83
2024/03/30 13:21:44;;;;;;;22.00;3.85;;;;;;;21.40;47.00;99187.28;2312207;76;50113;-83
2024/03/30 13:24:46;;;;;;;21.97;4.42;;;;;;;21.39;47.03;99184.28;2344172;75;50667;-83
2024/03/30 13:27:48;;;;;;;17.55;4.50;;;;;;;21.40;47.04;99181.05;2343952;76;50895;-83
2024/03/30 13:30:52;;;;;;;26.62;4.47;;;;;;;21.41;46.94;99185.41;2312495;76;50101;-83
2024/03/30 13:33:54;;;;;;;17.95;3.77;;;;;;;21.41;46.91;99187.56;2344000;75;50722;-84
2024/03/30 13:36:56;;;;;;;17.55;4.05;;;;;;;21.40;47.04;99189.97;2344108;76;50698;-83
2024/03/30 13:39:58;;;;;;;19.95;4.35;;;;;;;21.40;47.02;99199.39;2344263;76;51811;-83
2024/03/30 13:43:00;;;;;;;22.13;4.10;;;;;;;21.41;46.96;99198.86;2344396;76;50769;-83
2024/03/30 13:46:03;;;;;;;24.12;4.53;;;;;;;21.40;46.98;99200.73;2312238;76;51084;-84
2024/03/30 13:49:05;;;;;;;19.05;4.83;;;;;;;21.41;47.05;99200.20;2312472;76;50633;-83
2024/03/30 13:52:07;;;;;;;17.48;3.83;;;;;;;21.41;47.06;99202.36;2344318;76;50773;-82
2024/03/30 13:55:09;;;;;;;20.77;3.87;;;;;;;21.41;46.91;99203.70;2312563;76;51763;-82
2024/03/30 13:58:15;;;;;;;21.55;4.70;;;;;;;21.41;46.83;99209.09;2344071;76;50760;-83
2024/03/30 14:01:16;;;;;;;19.35;4.12;;;;;;;21.40;46.94;99205.27;2343885;76;22463;-83
2024/03/30 14:04:18;;;;;;;24.30;4.33;;;;;;;21.39;46.99;99203.12;2344051;75;50733;-83
2024/03/30 14:07:20;;;;;;;21.70;4.50;;;;;;;21.38;46.87;99209.56;2343825;76;50762;-83
2024/03/30 14:10:23;;;;;;;26.40;5.12;;;;;;;21.38;46.90;99205.53;2312760;76;50086;-83
2024/03/30 14:13:25;;;;;;;17.37;3.90;;;;;;;21.38;46.90;99201.49;2344633;76;51162;-84
2024/03/30 14:16:27;;;;;;;23.00;4.40;;;;;;;21.37;46.82;99197.65;2344703;75;50056;-83
2024/03/30 14:19:30;;;;;;;21.17;4.47;;;;;;;21.36;47.00;99196.84;2312831;76;50225;-84
2024/03/30 14:22:32;;;;;;;19.37;4.97;;;;;;;21.38;46.83;99193.92;2345079;76;50781;-83